createdAt,value
2018-09-05T00:02:50.994Z,11.70
2018-09-05T00:05:54.168Z,11.70
2018-09-05T00:08:57.617Z,11.30
2018-09-05T00:12:00.914Z,12.27
2018-09-05T00:15:04.187Z,11.90
2018-09-05T00:18:07.385Z,13.30
2018-09-05T00:21:10.675Z,11.97
2018-09-05T00:24:13.999Z,11.93
2018-09-05T00:27:18.014Z,13.10
2018-09-05T00:30:21.274Z,13.00
2018-09-05T00:33:24.605Z,12.67
2018-09-05T00:36:27.884Z,15.43
2018-09-05T00:39:31.185Z,13.03
2018-09-05T00:42:34.495Z,12.70
2018-09-05T00:45:37.759Z,13.90
2018-09-05T00:48:41.058Z,14.17
2018-09-05T00:51:44.368Z,12.83
2018-09-05T00:54:49.820Z,12.60
2018-09-05T00:57:53.143Z,13.20
2018-09-05T01:00:56.414Z,15.43
2018-09-05T01:03:59.715Z,13.13
2018-09-05T01:07:18.888Z,13.37
2018-09-05T01:10:22.199Z,13.40
2018-09-05T01:13:25.483Z,12.70
2018-09-05T01:16:28.770Z,12.70
2018-09-05T01:19:32.080Z,13.00
2018-09-05T01:22:35.375Z,14.10
2018-09-05T01:25:38.549Z,12.30
2018-09-05T01:28:41.858Z,13.00
2018-09-05T01:31:45.163Z,15.00
2018-09-05T01:34:49.770Z,13.37
2018-09-05T01:37:53.087Z,13.30
2018-09-05T01:40:56.386Z,12.07
2018-09-05T01:43:59.564Z,17.07
2018-09-05T01:47:02.880Z,13.10
2018-09-05T01:50:06.179Z,13.40
2018-09-05T01:53:09.457Z,13.33
2018-09-05T01:56:12.793Z,13.63
2018-09-05T01:59:16.071Z,14.40
2018-09-05T02:02:20.486Z,13.87
2018-09-05T02:05:23.772Z,15.93
2018-09-05T02:08:27.247Z,17.97
2018-09-05T02:11:30.378Z,13.87
2018-09-05T02:14:33.705Z,16.00
2018-09-05T02:17:36.960Z,15.40
2018-09-05T02:20:40.160Z,14.13
2018-09-05T02:23:43.471Z,13.77
2018-09-05T02:26:46.765Z,13.70
2018-09-05T02:29:51.012Z,13.77
2018-09-05T02:32:54.283Z,12.80
2018-09-05T02:35:57.575Z,14.17
2018-09-05T02:39:01.801Z,16.03
2018-09-05T02:42:05.104Z,14.67
2018-09-05T02:45:08.447Z,15.00
2018-09-05T02:48:12.707Z,14.00
2018-09-05T02:51:15.904Z,15.27
2018-09-05T02:54:20.106Z,14.90
2018-09-05T02:57:23.399Z,15.20
2018-09-05T03:00:26.641Z,13.57
2018-09-05T03:03:30.046Z,13.87
2018-09-05T03:06:33.194Z,13.50
2018-09-05T03:09:36.409Z,15.00
2018-09-05T03:12:40.731Z,14.70
2018-09-05T03:15:44.052Z,13.23
2018-09-05T03:18:47.327Z,15.67
2018-09-05T03:21:50.753Z,17.30
2018-09-05T03:24:53.999Z,14.87
2018-09-05T03:27:57.219Z,14.30
2018-09-05T03:31:14.568Z,14.20
2018-09-05T03:34:18.275Z,15.13
2018-09-05T03:37:21.429Z,15.20
2018-09-05T03:40:26.824Z,14.70
2018-09-05T03:43:30.171Z,15.00
2018-09-05T03:46:33.403Z,14.80
2018-09-05T03:49:36.857Z,15.37
2018-09-05T03:52:39.942Z,15.80
2018-09-05T03:55:43.207Z,16.20
2018-09-05T03:58:46.484Z,15.17
2018-09-05T04:01:50.468Z,15.57
2018-09-05T04:04:53.666Z,17.10
2018-09-05T04:07:57.054Z,15.87
2018-09-05T04:11:00.385Z,15.80
2018-09-05T04:14:03.803Z,16.67
2018-09-05T04:17:07.219Z,14.87
2018-09-05T04:20:10.509Z,19.83
2018-09-05T04:23:13.751Z,14.97
2018-09-05T04:26:18.234Z,15.40
2018-09-05T04:29:22.312Z,15.57
2018-09-05T04:32:26.654Z,18.50
2018-09-05T04:35:29.959Z,16.03
2018-09-05T04:38:33.453Z,15.67
2018-09-05T04:41:36.742Z,19.73
2018-09-05T04:44:40.359Z,15.43
2018-09-05T04:47:43.632Z,14.97
2018-09-05T04:50:46.839Z,15.70
2018-09-05T04:53:51.035Z,14.53
2018-09-05T04:56:54.828Z,14.20
2018-09-05T04:59:58.188Z,14.17
2018-09-05T05:03:01.451Z,16.20
2018-09-05T05:06:04.695Z,16.30
2018-09-05T05:09:16.143Z,16.77
2018-09-05T05:12:20.368Z,15.30
2018-09-05T05:15:23.638Z,15.63
2018-09-05T05:18:27.030Z,14.90
2018-09-05T05:21:31.245Z,16.57
2018-09-05T05:24:34.598Z,17.80
2018-09-05T05:27:37.851Z,16.60
2018-09-05T05:30:41.156Z,14.97
2018-09-05T05:33:44.393Z,19.40
2018-09-05T05:36:47.507Z,19.63
2018-09-05T05:39:51.698Z,15.60
2018-09-05T05:42:54.979Z,17.03
2018-09-05T05:45:58.243Z,15.20
2018-09-05T05:49:01.699Z,16.57
2018-09-05T05:52:04.992Z,15.70
2018-09-05T05:55:08.266Z,18.90
2018-09-05T05:58:11.592Z,15.97
2018-09-05T06:01:14.877Z,18.53
2018-09-05T06:04:18.155Z,15.57
2018-09-05T06:07:22.027Z,15.53
2018-09-05T06:10:26.217Z,16.50
2018-09-05T06:13:29.554Z,16.37
2018-09-05T06:16:32.706Z,18.50
2018-09-05T06:19:36.006Z,16.60
2018-09-05T06:22:39.257Z,18.50
2018-09-05T06:25:42.601Z,21.63
2018-09-05T06:28:45.848Z,20.70
2018-09-05T06:31:50.219Z,17.47
2018-09-05T06:34:53.487Z,19.37
2018-09-05T06:37:56.792Z,18.07
2018-09-05T06:40:59.959Z,16.27
2018-09-05T06:44:03.407Z,16.67
2018-09-05T06:47:06.676Z,16.83
2018-09-05T06:50:09.979Z,17.27
2018-09-05T06:53:13.151Z,17.13
2018-09-05T06:56:16.440Z,19.67
2018-09-05T06:59:20.346Z,20.07
2018-09-05T07:02:23.551Z,16.53
2018-09-05T07:05:26.703Z,18.57
2018-09-05T07:08:29.944Z,19.47
2018-09-05T07:11:33.232Z,20.20
2018-09-05T07:14:36.506Z,18.17
2018-09-05T07:17:39.816Z,20.87
2018-09-05T07:20:42.924Z,22.57
2018-09-05T07:23:46.238Z,21.07
2018-09-05T07:26:50.264Z,22.57
2018-09-05T07:29:53.572Z,19.70
2018-09-05T07:32:56.894Z,20.57
2018-09-05T07:36:00.381Z,20.73
2018-09-05T07:39:04.419Z,21.67
2018-09-05T07:42:07.666Z,19.80
2018-09-05T07:45:10.860Z,23.33
2018-09-05T07:48:14.132Z,25.87
2018-09-05T07:51:17.786Z,19.00
2018-09-05T07:54:22.083Z,21.47
2018-09-05T07:57:25.530Z,18.43
2018-09-05T08:00:28.755Z,17.70
2018-09-05T08:03:31.958Z,21.53
2018-09-05T08:06:35.101Z,21.30
2018-09-05T08:09:38.522Z,20.07
2018-09-05T08:12:41.745Z,20.07
2018-09-05T08:15:45.036Z,18.17
2018-09-05T08:18:48.268Z,18.43
2018-09-05T08:21:52.557Z,18.13
2018-09-05T08:24:55.741Z,20.53
2018-09-05T08:27:58.966Z,19.73
2018-09-05T08:31:02.344Z,17.33
2018-09-05T08:34:05.591Z,24.97
2018-09-05T08:37:09.180Z,16.47
2018-09-05T08:40:12.239Z,17.70
2018-09-05T08:43:15.439Z,21.80
2018-09-05T08:46:19.517Z,20.07
2018-09-05T08:49:22.656Z,17.07
2018-09-05T08:52:25.962Z,18.87
2018-09-05T08:55:29.492Z,22.10
2018-09-05T08:58:32.755Z,18.97
2018-09-05T09:01:36.934Z,16.30
2018-09-05T09:04:40.354Z,19.93
2018-09-05T09:07:43.613Z,18.30
2018-09-05T09:10:47.016Z,19.37
2018-09-05T09:13:51.502Z,15.27
2018-09-05T09:16:54.695Z,15.27
2018-09-05T09:19:58.966Z,16.40
2018-09-05T09:23:02.298Z,15.57
2018-09-05T09:26:05.649Z,16.17
2018-09-05T09:29:08.945Z,14.17
2018-09-05T09:32:12.244Z,17.37
2018-09-05T09:35:15.518Z,13.83
2018-09-05T09:38:19.551Z,15.10
2018-09-05T09:41:22.795Z,14.03
2018-09-05T09:44:25.969Z,14.60
2018-09-05T09:47:29.236Z,13.40
2018-09-05T09:50:32.527Z,13.40
2018-09-05T09:53:35.708Z,15.07
2018-09-05T09:56:38.944Z,17.53
2018-09-05T09:59:42.209Z,16.70
2018-09-05T10:02:51.050Z,15.20
2018-09-05T10:05:59.696Z,19.07
2018-09-05T10:09:08.344Z,18.03
2018-09-05T10:12:16.963Z,15.40
2018-09-05T10:15:25.600Z,14.63
2018-09-05T10:18:30.272Z,19.30
2018-09-05T10:21:33.543Z,14.67
2018-09-05T10:24:36.745Z,13.77
2018-09-05T10:27:40.044Z,13.23
2018-09-05T10:30:43.404Z,18.93
2018-09-05T10:33:46.687Z,16.70
2018-09-05T10:36:50.518Z,14.50
2018-09-05T10:39:53.835Z,14.63
2018-09-05T10:42:57.104Z,16.17
2018-09-05T10:46:01.480Z,15.23
2018-09-05T10:49:04.758Z,16.23
2018-09-05T10:52:09.084Z,14.50
2018-09-05T10:55:12.489Z,14.93
2018-09-05T10:58:15.706Z,17.17
2018-09-05T11:01:20.021Z,15.87
2018-09-05T11:04:23.338Z,12.30
2018-09-05T11:07:26.603Z,15.03
2018-09-05T11:10:29.943Z,17.00
2018-09-05T11:13:33.216Z,15.37
2018-09-05T11:16:36.928Z,15.37
2018-09-05T11:19:40.199Z,13.47
2018-09-05T11:22:46.790Z,16.77
2018-09-05T11:25:50.560Z,15.03
2018-09-05T11:28:53.965Z,17.50
2018-09-05T11:31:57.198Z,17.00
2018-09-05T11:35:00.487Z,17.47
2018-09-05T11:38:03.794Z,14.30
2018-09-05T11:41:07.227Z,16.73
2018-09-05T11:44:10.455Z,13.33
2018-09-05T11:47:13.664Z,12.77
2018-09-05T11:50:16.883Z,14.23
2018-09-05T11:53:20.626Z,12.50
2018-09-05T11:56:23.959Z,11.73
2018-09-05T11:59:27.235Z,13.13
2018-09-05T12:02:30.553Z,16.33
2018-09-05T12:05:33.747Z,13.47
2018-09-05T12:08:37.128Z,14.97
2018-09-05T12:11:40.761Z,11.73
2018-09-05T12:14:44.092Z,11.80
2018-09-05T12:17:47.482Z,11.63
2018-09-05T12:20:51.367Z,14.10
2018-09-05T12:23:54.685Z,12.30
2018-09-05T12:26:57.939Z,11.83
2018-09-05T12:30:01.276Z,11.97
2018-09-05T12:33:04.548Z,23.17
2018-09-05T12:36:07.826Z,12.67
2018-09-05T12:39:13.628Z,12.07
2018-09-05T12:42:16.927Z,13.30
2018-09-05T12:45:20.709Z,12.57
2018-09-05T12:48:24.447Z,13.87
2018-09-05T12:51:27.758Z,11.70
2018-09-05T12:54:30.971Z,15.83
2018-09-05T12:57:34.092Z,10.70
2018-09-05T13:00:37.304Z,12.63
2018-09-05T13:03:40.630Z,10.93
2018-09-05T13:06:43.754Z,11.13
2018-09-05T13:09:47.016Z,10.53
2018-09-05T13:12:51.428Z,12.23
2018-09-05T13:15:54.784Z,13.00
2018-09-05T13:18:57.994Z,12.60
2018-09-05T13:22:01.349Z,14.17
2018-09-05T13:25:04.615Z,10.97
2018-09-05T13:28:07.875Z,11.40
2018-09-05T13:31:11.199Z,12.87
2018-09-05T13:34:14.488Z,12.73
2018-09-05T13:37:17.682Z,11.07
2018-09-05T13:40:21.801Z,13.23
2018-09-05T13:43:25.112Z,13.97
2018-09-05T13:46:28.429Z,12.20
2018-09-05T13:49:31.707Z,12.97
2018-09-05T13:52:35.053Z,11.17
2018-09-05T13:55:38.348Z,10.73
2018-09-05T13:58:41.604Z,10.53
2018-09-05T14:01:45.047Z,11.77
2018-09-05T14:04:48.284Z,11.70
2018-09-05T14:07:52.246Z,11.83
2018-09-05T14:10:55.456Z,11.93
2018-09-05T14:13:58.686Z,11.93
2018-09-05T14:17:02.001Z,13.60
2018-09-05T14:20:05.728Z,11.30
2018-09-05T14:23:09.024Z,10.40
2018-09-05T14:26:12.299Z,12.17
2018-09-05T14:29:15.637Z,11.10
2018-09-05T14:32:18.896Z,11.07
2018-09-05T14:35:22.423Z,10.33
2018-09-05T14:38:25.695Z,9.73
2018-09-05T14:41:29.091Z,10.10
2018-09-05T14:44:32.572Z,11.17
2018-09-05T14:47:35.916Z,10.87
2018-09-05T14:50:39.252Z,10.53
2018-09-05T14:53:42.387Z,9.87
2018-09-05T14:56:47.082Z,10.43
2018-09-05T14:59:50.774Z,10.70
2018-09-05T15:02:54.040Z,9.97
2018-09-05T15:05:57.344Z,11.27
2018-09-05T15:09:00.595Z,10.40
2018-09-05T15:12:04.957Z,10.80
2018-09-05T15:15:08.261Z,11.00
2018-09-05T15:18:11.509Z,10.20
2018-09-05T15:21:14.934Z,12.80
2018-09-05T15:24:18.254Z,10.07
2018-09-05T15:27:22.243Z,11.67
2018-09-05T15:30:25.765Z,11.30
2018-09-05T15:33:29.043Z,10.43
2018-09-05T15:36:32.434Z,10.37
2018-09-05T15:39:35.768Z,9.77
2018-09-05T15:42:39.237Z,11.03
2018-09-05T15:45:42.547Z,10.40
2018-09-05T15:48:45.803Z,10.83
2018-09-05T15:51:53.559Z,10.07
2018-09-05T15:54:56.829Z,10.83
2018-09-05T15:58:00.171Z,11.17
2018-09-05T16:01:03.536Z,10.80
2018-09-05T16:04:07.041Z,11.77
2018-09-05T16:07:10.386Z,11.23
2018-09-05T16:10:13.629Z,10.67
2018-09-05T16:13:16.974Z,11.10
2018-09-05T16:16:20.715Z,14.23
2018-09-05T16:19:24.082Z,11.23
2018-09-05T16:22:27.362Z,11.10
2018-09-05T16:25:30.800Z,11.67
2018-09-05T16:28:34.265Z,11.60
2018-09-05T16:31:37.578Z,12.47
2018-09-05T16:34:40.818Z,11.70
2018-09-05T16:37:44.139Z,11.00
2018-09-05T16:40:47.391Z,11.53
2018-09-05T16:43:51.731Z,9.60
2018-09-05T16:46:54.947Z,12.87
2018-09-05T16:49:58.379Z,10.57
2018-09-05T16:53:01.631Z,10.77
2018-09-05T16:56:04.964Z,10.03
2018-09-05T16:59:08.232Z,10.13
2018-09-05T17:02:11.528Z,10.93
2018-09-05T17:05:14.719Z,10.50
2018-09-05T17:08:18.064Z,10.23
2018-09-05T17:11:22.009Z,10.30
2018-09-05T17:14:25.214Z,11.37
2018-09-05T17:17:28.648Z,9.97
2018-09-05T17:20:31.911Z,10.50
2018-09-05T17:23:35.300Z,10.97
2018-09-05T17:26:38.523Z,10.87
2018-09-05T17:29:41.818Z,10.00
2018-09-05T17:32:44.994Z,11.20
2018-09-05T17:35:48.332Z,12.23
2018-09-05T17:38:52.322Z,9.83
2018-09-05T17:41:55.613Z,15.07
2018-09-05T17:44:58.760Z,10.70
2018-09-05T17:48:02.354Z,11.73
2018-09-05T17:51:05.749Z,10.40
2018-09-05T17:54:09.027Z,10.57
2018-09-05T17:57:12.334Z,13.47
2018-09-05T18:00:15.583Z,11.00
2018-09-05T18:03:18.771Z,11.83
2018-09-05T18:06:22.999Z,13.80
2018-09-05T18:09:26.310Z,20.97
2018-09-05T18:12:29.686Z,14.37
2018-09-05T18:15:32.898Z,10.83
2018-09-05T18:18:36.191Z,12.23
2018-09-05T18:21:39.519Z,12.80
2018-09-05T18:24:42.855Z,10.90
2018-09-05T18:27:46.091Z,11.83
2018-09-05T18:30:50.151Z,13.47
2018-09-05T18:33:53.490Z,14.20
2018-09-05T18:36:56.689Z,13.23
2018-09-05T18:40:00.013Z,11.77
2018-09-05T18:43:03.230Z,11.80
2018-09-05T18:46:06.512Z,10.97
2018-09-05T18:49:09.706Z,13.03
2018-09-05T18:52:12.983Z,12.77
2018-09-05T18:55:16.216Z,13.37
2018-09-05T18:58:19.929Z,11.93
2018-09-05T19:01:23.199Z,14.20
2018-09-05T19:04:26.499Z,13.87
2018-09-05T19:07:29.672Z,11.37
2018-09-05T19:10:34.048Z,11.43
2018-09-05T19:13:37.306Z,12.60
2018-09-05T19:16:41.299Z,13.77
2018-09-05T19:19:44.613Z,13.33
2018-09-05T19:22:47.973Z,12.17
2018-09-05T19:25:51.207Z,14.07
2018-09-05T19:28:54.347Z,14.23
2018-09-05T19:31:57.655Z,11.90
2018-09-05T19:35:01.824Z,16.40
2018-09-05T19:38:05.027Z,12.30
2018-09-05T19:41:08.356Z,13.10
2018-09-05T19:44:12.679Z,12.47
2018-09-05T19:47:16.087Z,13.47
2018-09-05T19:50:19.363Z,13.67
2018-09-05T19:53:22.701Z,14.80
2018-09-05T19:56:26.029Z,14.67
2018-09-05T19:59:29.392Z,12.63
2018-09-05T20:02:32.523Z,13.27
2018-09-05T20:05:35.712Z,13.33
2018-09-05T20:08:39.065Z,11.40
2018-09-05T20:11:43.222Z,10.30
2018-09-05T20:14:46.422Z,12.00
2018-09-05T20:17:49.702Z,10.87
2018-09-05T20:20:52.972Z,11.37
2018-09-05T20:24:04.030Z,12.40
2018-09-05T20:27:08.544Z,13.67
2018-09-05T20:30:13.877Z,10.43
2018-09-05T20:33:17.178Z,11.87
2018-09-05T20:36:20.419Z,11.07
2018-09-05T20:39:23.772Z,13.20
2018-09-05T20:42:27.159Z,14.57
2018-09-05T20:45:30.396Z,11.57
2018-09-05T20:48:33.718Z,10.07
2018-09-05T20:51:36.964Z,9.60
2018-09-05T20:54:40.900Z,10.67
2018-09-05T20:57:44.203Z,12.10
2018-09-05T21:00:47.364Z,9.50
2018-09-05T21:03:50.623Z,10.13
2018-09-05T21:06:53.969Z,9.30
2018-09-05T21:09:57.266Z,11.33
2018-09-05T21:13:00.893Z,11.13
2018-09-05T21:16:04.203Z,12.20
2018-09-05T21:19:07.559Z,9.60
2018-09-05T21:22:11.511Z,9.67
2018-09-05T21:25:14.778Z,9.67
2018-09-05T21:28:18.146Z,11.57
2018-09-05T21:31:21.495Z,9.70
2018-09-05T21:34:24.809Z,8.97
2018-09-05T21:37:28.084Z,9.23
2018-09-05T21:40:31.458Z,12.00
2018-09-05T21:43:34.755Z,10.10
2018-09-05T21:46:38.033Z,11.83
2018-09-05T21:49:42.405Z,10.43
2018-09-05T21:52:45.702Z,10.73
2018-09-05T21:55:48.971Z,10.33
2018-09-05T21:58:52.236Z,10.47
2018-09-05T22:01:55.398Z,9.73
2018-09-05T22:04:58.708Z,11.43
2018-09-05T22:08:01.958Z,11.67
2018-09-05T22:11:11.511Z,10.13
2018-09-05T22:14:14.773Z,9.90
2018-09-05T22:17:17.997Z,10.17
2018-09-05T22:20:21.273Z,12.33
2018-09-05T22:23:24.564Z,9.80
2018-09-05T22:26:27.779Z,10.20
2018-09-05T22:29:34.493Z,10.70
2018-09-05T22:32:37.756Z,9.70
2018-09-05T22:35:41.440Z,10.77
2018-09-05T22:38:44.776Z,10.00
2018-09-05T22:41:48.051Z,10.33
2018-09-05T22:45:02.680Z,10.90
2018-09-05T22:48:34.235Z,10.70
2018-09-05T22:53:22.651Z,11.27
2018-09-05T22:58:48.832Z,10.97
2018-09-05T23:02:23.503Z,9.83
2018-09-05T23:08:48.534Z,10.23
2018-09-05T23:12:03.044Z,12.57
2018-09-05T23:15:17.709Z,11.03
2018-09-05T23:18:42.864Z,12.50
2018-09-05T23:21:46.228Z,11.80
2018-09-05T23:24:49.489Z,16.33
2018-09-05T23:27:52.719Z,11.30
2018-09-05T23:30:56.026Z,11.37
2018-09-05T23:33:59.290Z,12.20
2018-09-05T23:37:02.590Z,13.93
2018-09-05T23:40:05.893Z,15.60
2018-09-05T23:43:09.191Z,12.00
2018-09-05T23:46:13.693Z,13.00
2018-09-05T23:49:16.916Z,12.17
2018-09-05T23:52:20.186Z,12.73
2018-09-05T23:55:23.480Z,12.30
2018-09-05T23:58:30.497Z,13.93
